Time;durP1;ratioP1;P1;durP2;ratioP2;P2;SDS_P1;SDS_P2;PMS_P1;PMS_P2;Temp;Humidity;BMP_temperature;BMP_pressure;BME280_temperature;BME280_humidity;BME280_pressure;Samples;Min_cycle;Max_cycle;Signal;HPM_P1;HPM_P2
2023/07/20 18:53:05;;;;;;;2.67;0.90;;;22.30;80.20;;;;;;6180508;22;1253267;-81
2023/07/20 18:55:35;;;;;;;1.17;0.90;;;22.20;80.60;;;;;;6212233;23;20575;-81
2023/07/20 18:58:01;;;;;;;5.75;2.05;;;22.20;80.70;;;;;;6211928;23;20003;-81
2023/07/20 19:00:26;;;;;;;5.97;2.72;;;22.10;80.40;;;;;;6212256;23;20001;-81
2023/07/20 19:02:52;;;;;;;5.03;2.90;;;22.10;80.50;;;;;;6212426;23;19997;-81
2023/07/20 19:05:17;;;;;;;3.22;2.80;;;22.00;80.50;;;;;;6211525;23;20005;-81
2023/07/20 19:07:43;;;;;;;2.72;2.53;;;22.00;80.90;;;;;;6212236;23;20005;-81
2023/07/20 19:10:10;;;;;;;3.55;3.10;;;21.90;81.20;;;;;;6185483;23;20377;-80
2023/07/20 19:12:36;;;;;;;2.08;1.88;;;21.90;81.60;;;;;;6211576;23;19993;-82
2023/07/20 19:15:03;;;;;;;2.63;2.38;;;21.80;82.00;;;;;;6212188;23;20141;-82
2023/07/20 19:17:29;;;;;;;3.15;2.65;;;21.80;82.60;;;;;;6185648;23;20005;-82
2023/07/20 19:19:55;;;;;;;4.63;3.15;;;21.80;82.90;;;;;;6184314;23;20016;-81
2023/07/20 19:22:20;;;;;;;3.30;3.08;;;21.70;83.50;;;;;;6212098;23;20354;-83
2023/07/20 19:24:46;;;;;;;4.00;3.70;;;21.70;83.80;;;;;;6212155;23;20009;-82
2023/07/20 19:27:14;;;;;;;3.67;3.38;;;21.70;83.90;;;;;;6212446;23;20087;-82
2023/07/20 19:29:39;;;;;;;3.88;3.45;;;21.60;84.40;;;;;;6211214;23;20057;-82
2023/07/20 19:32:06;;;;;;;4.07;3.78;;;21.60;84.60;;;;;;6212163;23;20000;-84
2023/07/20 19:34:32;;;;;;;4.25;3.47;;;21.60;85.10;;;;;;6185097;23;20087;-82
2023/07/20 19:36:57;;;;;;;4.78;4.28;;;21.50;85.20;;;;;;6212389;23;20031;-82
2023/07/20 19:39:23;;;;;;;4.30;3.60;;;21.50;85.30;;;;;;6211988;23;20005;-82
2023/07/20 19:41:49;;;;;;;3.92;3.47;;;21.50;85.60;;;;;;6212129;23;20001;-82
2023/07/20 19:44:16;;;;;;;4.75;4.35;;;21.40;85.90;;;;;;6212001;23;20005;-82
2023/07/20 19:46:41;;;;;;;4.65;4.03;;;21.40;86.10;;;;;;6212277;23;20391;-78
2023/07/20 19:49:07;;;;;;;4.10;3.35;;;21.40;86.40;;;;;;6211557;23;20004;-78
2023/07/20 19:51:32;;;;;;;5.03;4.57;;;21.40;86.90;;;;;;6212187;23;20449;-78
2023/07/20 19:53:58;;;;;;;4.00;3.70;;;21.40;87.10;;;;;;6211861;23;20017;-78
2023/07/20 19:56:24;;;;;;;6.97;4.93;;;21.30;87.50;;;;;;6211714;23;20031;-78
2023/07/20 19:58:50;;;;;;;5.20;4.55;;;21.30;87.90;;;;;;6211927;23;20035;-78
2023/07/20 20:01:15;;;;;;;5.95;4.85;;;21.20;88.00;;;;;;6212004;23;20457;-78
2023/07/20 20:03:41;;;;;;;4.65;4.22;;;21.20;88.30;;;;;;6211378;23;20015;-78
2023/07/20 20:06:09;;;;;;;5.07;4.68;;;21.20;88.40;;;;;;6211963;23;20005;-78
2023/07/20 20:08:35;;;;;;;6.60;4.65;;;21.20;88.70;;;;;;6212095;23;20032;-78
2023/07/20 20:11:01;;;;;;;5.63;5.13;;;21.20;88.90;;;;;;6212215;23;19996;-78
2023/07/20 20:13:27;;;;;;;5.20;4.80;;;21.00;89.10;;;;;;6185094;23;20481;-78
2023/07/20 20:15:53;;;;;;;6.93;5.38;;;21.10;89.10;;;;;;6185184;23;20059;-78
2023/07/20 20:18:22;;;;;;;5.40;4.90;;;21.10;89.20;;;;;;6211257;23;20004;-78
2023/07/20 20:20:48;;;;;;;6.18;5.68;;;21.00;89.30;;;;;;6211899;23;19996;-78
2023/07/20 20:23:20;;;;;;;6.00;5.50;;;21.00;89.50;;;;;;6211887;23;20009;-78
2023/07/20 20:25:47;;;;;;;7.38;5.32;;;20.90;90.10;;;;;;6211933;23;20730;-78
2023/07/20 20:28:16;;;;;;;5.68;5.18;;;20.80;90.20;;;;;;6211532;23;20044;-78
2023/07/20 20:30:44;;;;;;;6.22;5.63;;;20.80;90.40;;;;;;6211838;23;20043;-78
2023/07/20 20:33:10;;;;;;;6.72;6.13;;;20.70;90.50;;;;;;6184530;23;20095;-78
2023/07/20 20:35:36;;;;;;;7.20;6.60;;;20.60;90.60;;;;;;6185042;23;20032;-78
2023/07/20 20:38:01;;;;;;;7.45;6.85;;;20.50;90.80;;;;;;6211779;23;20000;-79
2023/07/20 20:40:27;;;;;;;8.20;7.50;;;20.40;90.90;;;;;;6211811;23;20001;-78
2023/07/20 20:42:52;;;;;;;8.27;7.47;;;20.30;91.00;;;;;;6211615;23;20441;-78
2023/07/20 20:45:18;;;;;;;8.05;7.45;;;20.30;91.10;;;;;;6211562;23;20087;-78
2023/07/20 20:47:44;;;;;;;8.32;7.53;;;20.20;91.20;;;;;;6210821;23;20000;-79
2023/07/20 20:50:10;;;;;;;8.98;8.15;;;20.10;91.30;;;;;;6211512;23;20044;-78
2023/07/20 20:52:36;;;;;;;8.95;8.13;;;20.10;91.40;;;;;;6211328;23;20370;-78
2023/07/20 20:55:02;;;;;;;9.38;8.57;;;20.00;91.40;;;;;;6211515;23;20008;-78
2023/07/20 20:57:28;;;;;;;10.00;9.05;;;20.00;91.50;;;;;;6185073;23;20111;-78
2023/07/20 20:59:54;;;;;;;10.18;9.18;;;19.90;91.70;;;;;;6211229;23;20001;-79
2023/07/20 21:02:19;;;;;;;8.65;7.93;;;19.90;91.70;;;;;;6210861;23;20004;-78
2023/07/20 21:04:46;;;;;;;9.60;8.70;;;19.90;91.70;;;;;;6211038;23;20005;-82
2023/07/20 21:07:12;;;;;;;8.10;7.40;;;19.80;91.90;;;;;;6184397;23;20000;-78
2023/07/20 21:09:39;;;;;;;8.85;8.05;;;19.80;92.10;;;;;;6211247;23;20005;-78
2023/07/20 21:12:05;;;;;;;8.00;7.30;;;19.70;92.30;;;;;;6210976;23;20001;-78
2023/07/20 21:14:30;;;;;;;8.23;7.45;;;19.70;92.50;;;;;;6211230;23;20055;-78
2023/07/20 21:16:56;;;;;;;9.23;8.52;;;19.70;92.50;;;;;;6210569;23;20004;-80
2023/07/20 21:19:22;;;;;;;8.35;7.65;;;19.60;92.70;;;;;;6210890;23;20009;-83
2023/07/20 21:21:47;;;;;;;7.82;7.13;;;19.60;92.70;;;;;;6211136;23;20071;-84
2023/07/20 21:24:13;;;;;;;7.57;6.97;;;19.60;92.70;;;;;;6184371;23;20095;-83
2023/07/20 21:26:38;;;;;;;9.15;7.20;;;19.60;92.80;;;;;;6211360;23;19997;-83
2023/07/20 21:29:05;;;;;;;8.68;7.90;;;19.60;93.00;;;;;;6210958;23;20024;-84
2023/07/20 21:31:31;;;;;;;8.30;7.50;;;19.60;93.20;;;;;;6210561;23;19996;-83
2023/07/20 21:33:56;;;;;;;8.05;7.35;;;19.50;93.30;;;;;;6210830;23;20032;-84
2023/07/20 21:36:23;;;;;;;8.75;7.95;;;19.50;93.40;;;;;;6211073;23;20083;-84
2023/07/20 21:38:49;;;;;;;8.73;7.90;;;19.50;93.60;;;;;;6211076;23;20008;-83
2023/07/20 21:41:14;;;;;;;8.35;7.55;;;19.50;93.60;;;;;;6211050;23;20000;-84
2023/07/20 21:43:40;;;;;;;8.30;7.70;;;19.40;93.60;;;;;;6211064;23;20102;-84
2023/07/20 21:46:06;;;;;;;7.93;7.20;;;19.40;93.70;;;;;;6210610;23;20008;-84
2023/07/20 21:48:31;;;;;;;9.18;8.38;;;19.40;93.70;;;;;;6211560;23;20050;-84
2023/07/20 21:50:57;;;;;;;11.18;9.50;;;19.40;93.90;;;;;;6211295;23;20003;-84
2023/07/20 21:53:23;;;;;;;10.02;9.15;;;19.40;94.00;;;;;;6210987;23;20012;-84
2023/07/20 21:55:49;;;;;;;9.70;8.90;;;19.40;94.10;;;;;;6211300;23;20067;-83
2023/07/20 21:58:17;;;;;;;11.10;10.10;;;19.30;94.20;;;;;;6211390;23;20075;-83
2023/07/20 22:00:47;;;;;;;9.80;8.88;;;19.20;94.40;;;;;;6210575;23;20063;-81
2023/07/20 22:03:13;;;;;;;8.20;7.53;;;19.20;94.40;;;;;;6210237;23;20029;-82
2023/07/20 22:05:44;;;;;;;5.55;5.15;;;19.20;94.30;;;;;;6210119;23;20429;-84
2023/07/20 22:08:12;;;;;;;4.45;3.65;;;19.20;94.30;;;;;;6210826;23;20001;-84
2023/07/20 22:10:39;;;;;;;2.85;2.65;;;19.20;94.10;;;;;;6184792;23;20075;-84
2023/07/20 22:13:06;;;;;;;4.50;4.10;;;19.20;93.80;;;;;;6210988;23;20538;-83
2023/07/20 22:15:32;;;;;;;5.75;4.63;;;19.20;93.90;;;;;;6210656;23;20050;-83
2023/07/20 22:18:00;;;;;;;6.22;5.63;;;19.30;94.00;;;;;;6211232;23;19996;-84
2023/07/20 22:20:25;;;;;;;4.80;4.32;;;19.30;94.10;;;;;;6184947;23;20088;-84
2023/07/20 22:22:51;;;;;;;5.25;4.85;;;19.30;94.30;;;;;;6212869;23;20081;-83
2023/07/20 22:25:16;;;;;;;4.93;4.53;;;19.30;94.30;;;;;;6212822;23;20008;-84
2023/07/20 22:27:42;;;;;;;8.85;4.38;;;19.20;94.40;;;;;;6213146;23;20083;-84
2023/07/20 22:30:11;;;;;;;4.28;3.75;;;19.30;94.40;;;;;;6212191;23;20072;-84
2023/07/20 22:32:37;;;;;;;4.30;3.90;;;19.20;94.30;;;;;;6212996;23;20011;-84
2023/07/20 22:35:04;;;;;;;4.22;3.83;;;19.30;94.40;;;;;;6186102;23;20015;-83
2023/07/20 22:37:29;;;;;;;3.40;3.15;;;19.30;94.40;;;;;;6213078;23;20035;-84
2023/07/20 22:39:55;;;;;;;4.13;3.47;;;19.30;94.50;;;;;;6212974;23;20100;-84
2023/07/20 22:42:20;;;;;;;2.80;2.60;;;19.30;94.40;;;;;;6212091;23;20062;-83
2023/07/20 22:44:46;;;;;;;2.88;2.22;;;19.30;94.30;;;;;;6212735;23;20012;-84
2023/07/20 22:47:12;;;;;;;2.05;1.70;;;19.30;94.30;;;;;;6186160;23;20377;-83
2023/07/20 22:49:37;;;;;;;4.60;2.00;;;19.30;94.20;;;;;;6185970;23;20039;-83
2023/07/20 22:52:03;;;;;;;1.42;1.33;;;19.30;94.00;;;;;;6212039;23;20407;-83
2023/07/20 22:54:30;;;;;;;2.05;1.60;;;19.30;93.80;;;;;;6212660;23;20012;-83
2023/07/20 22:56:56;;;;;;;3.97;1.60;;;19.30;93.60;;;;;;6212048;23;20008;-83
2023/07/20 22:59:22;;;;;;;1.60;1.05;;;19.40;93.40;;;;;;6212650;23;20004;-83
2023/07/20 23:01:47;;;;;;;3.05;1.20;;;19.40;93.10;;;;;;6212582;23;20001;-83
2023/07/20 23:04:13;;;;;;;2.70;1.10;;;19.40;92.80;;;;;;6212471;23;20012;-83
2023/07/20 23:06:40;;;;;;;1.75;1.00;;;19.40;92.50;;;;;;6212329;23;20064;-83
2023/07/20 23:09:06;;;;;;;1.52;1.00;;;19.40;92.30;;;;;;6212487;23;20075;-83
2023/07/20 23:11:32;;;;;;;2.03;0.93;;;19.30;92.30;;;;;;6212260;23;20043;-83
2023/07/20 23:13:57;;;;;;;3.80;1.20;;;19.30;92.30;;;;;;6212741;23;20004;-83
2023/07/20 23:16:23;;;;;;;2.35;1.42;;;19.30;92.20;;;;;;6212383;23;20001;-84
2023/07/20 23:18:49;;;;;;;1.45;0.98;;;19.30;92.20;;;;;;6212488;23;20003;-84
2023/07/20 23:21:15;;;;;;;1.20;0.88;;;19.30;92.10;;;;;;6212387;23;20326;-84
2023/07/20 23:23:43;;;;;;;1.35;1.15;;;19.20;92.00;;;;;;6212500;23;20011;-83
2023/07/20 23:26:11;;;;;;;1.40;1.00;;;19.20;91.90;;;;;;6211897;23;20010;-83
2023/07/20 23:28:40;;;;;;;1.00;0.88;;;19.20;91.90;;;;;;6212509;23;20001;-83
2023/07/20 23:31:06;;;;;;;1.42;1.00;;;19.20;91.80;;;;;;6212154;23;20423;-83
2023/07/20 23:33:32;;;;;;;2.53;1.02;;;19.20;92.00;;;;;;6185653;23;20001;-84
2023/07/20 23:35:57;;;;;;;1.05;0.95;;;19.20;92.10;;;;;;6210510;23;20090;-84
2023/07/20 23:38:23;;;;;;;1.25;0.88;;;19.20;92.20;;;;;;6209820;23;20009;-84
2023/07/20 23:40:49;;;;;;;1.67;0.90;;;19.20;92.10;;;;;;6209306;23;20039;-84
2023/07/20 23:43:14;;;;;;;5.50;0.93;;;19.20;92.00;;;;;;6209667;23;20004;-83
2023/07/20 23:45:40;;;;;;;2.55;0.90;;;19.20;91.90;;;;;;6209877;23;20426;-84
2023/07/20 23:48:12;;;;;;;1.50;1.20;;;19.10;91.70;;;;;;6210065;23;20079;-84
2023/07/20 23:50:40;;;;;;;2.25;0.80;;;19.10;91.70;;;;;;6209175;23;20416;-84
2023/07/20 23:53:05;;;;;;;0.98;0.80;;;19.10;91.60;;;;;;6211711;23;20019;-84
2023/07/20 23:55:31;;;;;;;1.33;0.77;;;19.00;91.60;;;;;;6211670;23;20000;-83
2023/07/20 23:57:57;;;;;;;1.10;0.90;;;19.00;91.50;;;;;;6211110;23;20000;-83
